• Join FlightAware (Why Join?)
  • Login
  • US Flag 
05:51PM EDT


 

Airport Tracker/Info


-or-


 

Live Flight TrackerFlight Track Log ✈ RPA3161 ✈ 02-May-2013 ✈ KBTV - KDCA

Flight Track Log - Related Links

Times and Time Zones

All times are in EDT time to prevent confusion due to time zone crossing. See the RPA3161 flight status page for this flight to view local times or setup timezone preferences in your user account.

Time Position Orientation Groundspeed Altitude Reporting Facility
EDT Latitude Longitude Course Direction KTS MPH feet Rate Location/Type
12:32PM 44.1842 -73.2560 195° South  Level FlightAware Approximate
12:32PM 44.4539 -73.3067 195° South 238 274 5,800  Level Boston Center
12:33PM 44.0895 -73.2915 195° South  Level FlightAware Approximate
12:33PM 44.3806 -73.3667 210° Southwest 273 314 8,700  Level Boston Center
12:34PM 43.9942 -73.3242 194° South  Level FlightAware Approximate
12:34PM 44.2969 -73.3914 192° South 295 339 11,300  Level Boston Center
12:35PM 43.8990 -73.3567 195° South  Level FlightAware Approximate
12:35PM 44.2050 -73.4161 191° South 333 383 13,400  Level Boston Center
12:36PM 43.8043 -73.3923 195° South  Level FlightAware Approximate
12:36PM 44.1278 -73.4381 192° South 356 410 15,200  Level Boston Center
12:37PM 43.7096 -73.4277 195° South  Level FlightAware Approximate
12:37PM 44.0044 -73.4792 193° South 372 428 17,800  Level Boston Center
12:38PM 43.9081 -73.5408 205° Southwest 378 435 19,400 1,440 Climbing Boston Center
12:39PM 43.8094 -73.6053 205° Southwest 390 449 21,000 1,620 Climbing Boston Center
12:40PM 43.6628 -73.6828 201° Southwest 407 468 23,300 1,680 Climbing Boston Center
12:41PM 43.5481 -73.7006 186° South 407 468 24,800 1,440 Climbing Boston Center
12:42PM 43.4311 -73.7153 185° South 418 481 26,200 1,200 Climbing Boston Center
12:43PM 43.3331 -73.7275 185° South 429 494 27,200 1,260 Climbing Boston Center
12:44PM 43.1850 -73.7472 186° South 447 514 28,800 1,320 Climbing Boston Center
12:45PM 43.0617 -73.7672 187° South 447 514 29,900 600 Climbing Boston Center
12:46PM 42.9364 -73.7814 185° South 447 514 30,000  Climbing Boston Center
12:47PM 42.8133 -73.7986 186° South 447 514 30,000  Level Boston Center
12:48PM 42.6881 -73.8017 181° South 446 513 30,000  Level Boston Center
12:49PM 42.5697 -73.7792 172° South 440 506 30,000  Level Boston Center
12:50PM 42.4489 -73.7625 173° South 440 506 30,000  Level Boston Center
12:51PM 42.4465 -73.7577 173° South  Level FlightAware Approximate
12:51PM 42.3242 -73.7431 173° South 445 512 30,000  Level Boston Center
12:52PM 42.1764 -73.7203 173° South 445 512 30,000  Level Boston Center
12:53PM 42.0558 -73.7011 173° South 435 501 30,000  Level Boston Center
12:54PM 41.9558 -73.6853 173° South 442 509 30,000  Level Boston Center
12:56PM 41.8403 -73.6656 173° South  Level FlightAware Approximate
12:56PM 41.6850 -73.6742 173° South 442 509 30,000  Level Boston Center
12:57PM 41.5806 -73.6972 189° South 442 509 30,000  Level Boston Center
12:58PM 41.5292 -73.7086 189° South 439 505 30,000  Level New York Center
12:59PM 41.4056 -73.7392 191° South 451 519 30,000  Level New York Center
01:00PM 41.2819 -73.7694 190° South 451 519 30,000  Level New York Center
01:01PM 41.1600 -73.8108 194° South 451 519 30,000 -60 Level New York Center
01:02PM 41.0758 -73.9228 225° Southwest 429 494 29,900 -180 Descending New York Center
01:03PM 41.0014 -74.0539 233° Southwest 429 494 29,700 -600 Descending New York Center
01:04PM 40.9164 -74.1897 230° Southwest 442 509 28,800 -840 Descending New York Center
01:05PM 40.8397 -74.3175 232° Southwest 448 516 28,100 -420 Descending New York Center
01:06PM 40.7650 -74.4425 232° Southwest 448 516 28,000 -60 Descending New York Center
01:07PM 40.6903 -74.5672 232° Southwest 448 516 28,000  Level New York Center
01:08PM 40.6175 -74.6889 232° Southwest 437 503 28,000 -240 Level New York Center
01:09PM 40.5383 -74.8072 229° Southwest 437 503 27,600 -1,200 Descending New York Center
01:10PM 40.4572 -74.9253 228° Southwest 443 510 25,600 -1,320 Descending New York Center
01:11PM 40.3739 -75.0428 227° Southwest 443 510 25,000 -900 Descending New York Center
01:12PM 40.2858 -75.1653 227° Southwest 453 521 23,900 -1,740 Descending New York Center
01:13PM 40.2003 -75.2847 227° Southwest 453 521 21,600 -1,980 Descending New York Center
01:14PM 40.1186 -75.3989 227° Southwest 448 516 20,000 -840 Descending New York Center
01:15PM 40.0481 -75.4972 227° Southwest 437 503 20,000  Level New York Center
01:16PM 39.9683 -75.6083 227° Southwest 432 497 20,000  Level New York Center
01:17PM 39.8906 -75.7247 229° Southwest 432 497 20,000  Level New York Center
01:18PM 39.8169 -75.8411 231° Southwest 426 490 20,000  Level New York Center
01:19PM 39.7450 -75.9603 232° Southwest 426 490 20,000 -780 Level New York Center
01:20PM 39.6600 -76.0889 229° Southwest 426 490 18,500 -1,920 Descending New York Center
01:21PM 39.5833 -76.2000 228° Southwest 400 460 16,100 -2,220 Descending Potomac TRACON
01:22PM 39.5167 -76.3167 233° Southwest 381 438 14,100 -2,040 Descending Potomac TRACON
01:23PM 39.4500 -76.4167 229° Southwest 377 434 12,100 -1,020 Descending Potomac TRACON
01:24PM 39.3667 -76.5000 218° Southwest 361 415 12,100 -180 Level Potomac TRACON
01:25PM 39.2833 -76.5667 212° Southwest 365 420 11,800 -1,020 Descending Potomac TRACON
01:26PM 39.2000 -76.6333 212° Southwest 341 392 10,100 -900 Descending Potomac TRACON
01:27PM 39.1333 -76.7000 218° Southwest 296 341 10,100 -60 Level Potomac TRACON
01:28PM 39.0667 -76.7833 224° Southwest 297 342 10,000 -780 Descending Potomac TRACON
01:29PM 39.0167 -76.8500 226° Southwest 289 333 8,600 -1,500 Descending Potomac TRACON
01:30PM 38.9500 -76.9167 218° Southwest 277 319 7,000 -840 Descending Potomac TRACON
01:31PM 38.8833 -76.9500 201° Southwest 275 316 7,000 -240 Level Potomac TRACON
01:32PM 38.8167 -76.9500 180° South 281 323 6,600 -1,140 Descending Potomac TRACON
01:33PM 38.7333 -76.9333 171° South 266 306 4,700 -1,260 Descending Potomac TRACON
01:34PM 38.6667 -76.9667 201° Southwest 257 296 4,000 -540 Descending Potomac TRACON
01:35PM 38.6833 -77.0167 293° West 189 217 3,700 -660 Descending Potomac TRACON
01:36PM 38.7333 -77.0333 345° North 174 200 2,700 -1,260 Descending Potomac TRACON
01:37PM 38.7667 -77.0333 360° North 172 198 1,400 -1,140 Descending Potomac TRACON
01:38PM 38.8167 -77.0333 360° North 130 150 500 -840 Descending Potomac TRACON